• Join FlightAware (Why Join?)
  • Login
  • US Flag 
01:53AM EST


 

Airport Tracker/Info


-or-


 

Live Flight TrackerFlight Track Log ✈ CLH304 ✈ 29-Jun-2013 ✈ EDDF / FRA - LIMF / TRN

Flight Track Log - Related Links

Times and Time Zones

All times are in EDT time to prevent confusion due to time zone crossing. See the CLH304 flight status page for this flight to view local times or setup timezone preferences in your user account.

Time Position Orientation Groundspeed Altitude Reporting Facility
EDT Latitude Longitude Course Direction KTS MPH feet Rate Location/Type
03:25PM 49.3214 8.4018 187° South  Level Estimated
03:26PM 49.2039 8.3786 187° South  Level Estimated
03:27PM 49.0864 8.3555 187° South  Level Estimated
03:28PM 48.9689 8.3326 187° South  Level Estimated
03:29PM 48.8514 8.3097 187° South  Level Estimated
03:30PM 48.7338 8.2870 187° South  Level Estimated
03:31PM 48.6163 8.2644 187° South  Level Estimated
03:32PM 48.4987 8.2419 187° South  Level Estimated
03:33PM 48.3812 8.2194 187° South  Level Estimated
03:34PM 48.2636 8.1971 187° South  Level Estimated
03:35PM 48.1461 8.1749 187° South  Level Estimated
03:36PM 48.0285 8.1528 187° South  Level Estimated
03:37PM 47.9110 8.1308 187° South  Level Estimated
03:38PM 47.7934 8.1089 187° South  Level Estimated
03:39PM 47.6758 8.0871 187° South  Level Estimated
03:40PM 47.5583 8.0654 187° South  Level Estimated
03:41PM 47.4407 8.0438 187° South  Level Estimated
03:42PM 47.3231 8.0223 187° South  Level Estimated
03:43PM 47.2055 8.0008 187° South  Level Estimated
03:44PM 47.0879 7.9795 187° South  Level Estimated
03:45PM 46.9703 7.9583 187° South  Level Estimated
03:46PM 46.8527 7.9371 187° South  Level Estimated
03:47PM 46.7351 7.9161 187° South  Level Estimated
03:48PM 46.6175 7.8951 187° South  Level Estimated
03:49PM 46.4999 7.8742 187° South  Level Estimated
03:50PM 46.3823 7.8535 187° South  Level Estimated
03:51PM 46.2647 7.8328 187° South  Level Estimated
03:52PM 46.1470 7.8122 187° South  Level Estimated
03:53PM 46.0294 7.7917 187° South  Level Estimated
03:54PM 45.9118 7.7712 187° South  Level Estimated
03:55PM 45.7942 7.7509 187° South  Level Estimated
03:56PM 45.6765 7.7307 187° South  Level Estimated
03:57PM 45.5589 7.7105 187° South  Level Estimated
03:58PM 45.4412 7.6904 187° South  Level Estimated
03:59PM 45.3236 7.6704 187° South  Level Estimated
04:00PM 45.2059 7.6505 187° South  Level Estimated
04:01PM 45.2008 7.6496 187° South  Level Estimated
04:02PM 45.2008 7.6496 35° Northeast  Level Estimated
04:03PM 45.2008 7.6496 35° Northeast  Level Estimated
04:04PM 45.2008 7.6496 35° Northeast  Level Estimated
04:05PM 45.2008 7.6496 35° Northeast  Level Estimated
04:06PM 45.2008 7.6496 35° Northeast  Level Estimated
04:07PM 45.2008 7.6496 35° Northeast  Level Estimated
04:08PM 45.2008 7.6496 35° Northeast  Level Estimated
04:09PM 45.2008 7.6496 35° Northeast  Level Estimated
04:10PM 45.2008 7.6496 35° Northeast  Level Estimated
04:11PM 45.2008 7.6496 35° Northeast  Level Estimated
04:12PM 45.2008 7.6496 35° Northeast  Level Estimated
04:13PM 45.2008 7.6496 35° Northeast  Level Estimated
04:14PM 45.2008 7.6496 35° Northeast  Level Estimated